createdAt,value
2017-05-06T00:00:36.704Z,1015.84
2017-05-06T00:01:37.348Z,1015.72
2017-05-06T00:02:37.997Z,1015.68
2017-05-06T00:03:38.642Z,1015.81
2017-05-06T00:04:39.285Z,1015.81
2017-05-06T00:05:39.931Z,1015.72
2017-05-06T00:06:40.877Z,1015.75
2017-05-06T00:07:41.518Z,1015.79
2017-05-06T00:08:42.164Z,1015.79
2017-05-06T00:09:42.813Z,1015.79
2017-05-06T00:10:43.452Z,1015.78
2017-05-06T00:11:44.092Z,1015.84
2017-05-06T00:12:44.733Z,1015.85
2017-05-06T00:13:45.374Z,1015.80
2017-05-06T00:14:46.218Z,1015.76
2017-05-06T00:15:46.859Z,1015.71
2017-05-06T00:16:47.498Z,1015.77
2017-05-06T00:17:48.137Z,1015.71
2017-05-06T00:18:48.782Z,1015.78
2017-05-06T00:19:49.422Z,1015.75
2017-05-06T00:20:50.063Z,1015.75
2017-05-06T00:21:50.703Z,1015.80
2017-05-06T00:22:51.695Z,1015.80
2017-05-06T00:23:52.335Z,1015.80
2017-05-06T00:24:52.978Z,1015.78
2017-05-06T00:25:53.675Z,1015.88
2017-05-06T00:26:54.318Z,1015.79
2017-05-06T00:27:54.959Z,1015.83
2017-05-06T00:28:55.599Z,1015.89
2017-05-06T00:29:56.241Z,1015.86
2017-05-06T00:30:57.085Z,1015.95
2017-05-06T00:31:57.725Z,1015.95
2017-05-06T00:32:58.365Z,1015.88
2017-05-06T00:33:59.005Z,1015.92
2017-05-06T00:34:59.646Z,1015.97
2017-05-06T00:36:00.290Z,1015.92
2017-05-06T00:37:00.929Z,1015.98
2017-05-06T00:38:01.572Z,1015.95
2017-05-06T00:39:02.409Z,1015.92
2017-05-06T00:40:03.047Z,1015.88
2017-05-06T00:41:03.684Z,1015.88
2017-05-06T00:42:04.323Z,1015.85
2017-05-06T00:43:04.963Z,1015.87
2017-05-06T00:44:05.604Z,1015.87
2017-05-06T00:45:06.246Z,1015.87
2017-05-06T00:46:06.888Z,1015.89
2017-05-06T00:47:07.529Z,1015.80
2017-05-06T00:48:08.317Z,1015.92
2017-05-06T00:49:08.962Z,1015.84
2017-05-06T00:50:09.606Z,1015.86
2017-05-06T00:51:10.240Z,1015.89
2017-05-06T00:52:10.882Z,1015.78
2017-05-06T00:53:11.523Z,1015.84
2017-05-06T00:54:12.164Z,1015.90
2017-05-06T00:55:12.805Z,1015.88
2017-05-06T00:56:13.646Z,1015.87
2017-05-06T00:57:14.287Z,1015.81
2017-05-06T00:58:14.928Z,1015.82
2017-05-06T00:59:15.570Z,1015.80
2017-05-06T01:00:16.212Z,1015.80
2017-05-06T01:01:16.806Z,1015.85
2017-05-06T01:02:17.447Z,1015.80
2017-05-06T01:03:18.087Z,1015.72
2017-05-06T01:04:18.921Z,1015.78
2017-05-06T01:05:19.564Z,1015.79
2017-05-06T01:06:20.203Z,1015.76
2017-05-06T01:07:20.843Z,1015.78
2017-05-06T01:08:21.484Z,1015.76
2017-05-06T01:09:22.124Z,1015.74
2017-05-06T01:10:22.769Z,1015.71
2017-05-06T01:11:23.407Z,1015.74
2017-05-06T01:12:24.248Z,1015.76
2017-05-06T01:13:24.888Z,1015.64
2017-05-06T01:14:25.528Z,1015.68
2017-05-06T01:15:26.172Z,1015.69
2017-05-06T01:16:26.812Z,1015.78
2017-05-06T01:17:27.452Z,1015.72
2017-05-06T01:18:28.091Z,1015.69
2017-05-06T01:19:28.733Z,1015.74
2017-05-06T01:20:29.375Z,1015.75
2017-05-06T01:21:30.214Z,1015.73
2017-05-06T01:22:30.854Z,1015.78
2017-05-06T01:23:31.494Z,1015.73
2017-05-06T01:24:32.138Z,1015.82
2017-05-06T01:25:32.776Z,1015.82
2017-05-06T01:26:33.422Z,1015.83
2017-05-06T01:27:34.061Z,1015.86
2017-05-06T01:28:34.705Z,1015.78
2017-05-06T01:29:35.795Z,1015.86
2017-05-06T01:30:36.437Z,1015.95
2017-05-06T01:31:37.080Z,1015.96
2017-05-06T01:32:37.722Z,1015.98
2017-05-06T01:33:38.361Z,1015.98
2017-05-06T01:34:39.000Z,1016.04
2017-05-06T01:35:39.646Z,1016.04
2017-05-06T01:36:40.282Z,1016.03
2017-05-06T01:37:41.125Z,1015.97
2017-05-06T01:38:41.762Z,1016.07
2017-05-06T01:39:42.401Z,1015.98
2017-05-06T01:40:43.043Z,1016.04
2017-05-06T01:41:43.682Z,1016.09
2017-05-06T01:42:44.327Z,1016.04
2017-05-06T01:43:44.968Z,1016.01
2017-05-06T01:44:45.610Z,1015.94
2017-05-06T01:45:46.400Z,1015.92
2017-05-06T01:46:47.045Z,1015.85
2017-05-06T01:47:47.686Z,1015.80
2017-05-06T01:48:48.328Z,1015.86
2017-05-06T01:49:48.963Z,1015.92
2017-05-06T01:50:49.603Z,1015.85
2017-05-06T01:51:50.241Z,1015.83
2017-05-06T01:52:50.881Z,1015.87
2017-05-06T01:53:51.725Z,1015.85
2017-05-06T01:54:52.367Z,1015.85
2017-05-06T01:55:53.010Z,1015.85
2017-05-06T01:56:53.648Z,1015.80
2017-05-06T01:57:54.290Z,1015.86
2017-05-06T01:58:54.934Z,1015.92
2017-05-06T01:59:55.578Z,1015.90
2017-05-06T02:00:56.212Z,1015.92
2017-05-06T02:01:56.853Z,1015.96
2017-05-06T02:02:57.693Z,1015.89
2017-05-06T02:03:58.336Z,1015.91
2017-05-06T02:04:58.979Z,1015.88
2017-05-06T02:05:59.619Z,1015.91
2017-05-06T02:07:00.261Z,1015.90
2017-05-06T02:08:00.902Z,1015.86
2017-05-06T02:09:01.542Z,1015.92
2017-05-06T02:10:02.184Z,1015.92
2017-05-06T02:11:02.974Z,1015.91
2017-05-06T02:12:03.617Z,1015.86
2017-05-06T02:13:04.252Z,1015.88
2017-05-06T02:14:04.897Z,1015.93
2017-05-06T02:15:05.538Z,1015.97
2017-05-06T02:16:06.179Z,1015.95
2017-05-06T02:17:06.816Z,1015.97
2017-05-06T02:18:07.457Z,1015.99
2017-05-06T02:19:08.303Z,1015.88
2017-05-06T02:20:08.942Z,1016.02
2017-05-06T02:21:09.574Z,1015.89
2017-05-06T02:22:10.215Z,1015.96
2017-05-06T02:23:10.855Z,1015.94
2017-05-06T02:24:11.497Z,1015.94
2017-05-06T02:25:12.139Z,1015.97
2017-05-06T02:26:12.780Z,1015.99
2017-05-06T02:27:13.570Z,1016.00
2017-05-06T02:28:14.212Z,1016.01
2017-05-06T02:29:14.905Z,1016.05
2017-05-06T02:30:15.547Z,1015.98
2017-05-06T02:31:16.183Z,1016.04
2017-05-06T02:32:16.826Z,1016.03
2017-05-06T02:33:17.463Z,1016.04
2017-05-06T02:34:18.106Z,1016.07
2017-05-06T02:35:18.747Z,1016.06
2017-05-06T02:36:19.590Z,1016.13
2017-05-06T02:37:20.229Z,1016.08
2017-05-06T02:38:20.868Z,1016.12
2017-05-06T02:39:21.511Z,1016.08
2017-05-06T02:40:22.155Z,1016.11
2017-05-06T02:41:22.790Z,1016.16
2017-05-06T02:42:23.431Z,1016.16
2017-05-06T02:43:24.076Z,1016.09
2017-05-06T02:44:24.913Z,1016.18
2017-05-06T02:45:25.556Z,1016.19
2017-05-06T02:46:26.200Z,1016.16
2017-05-06T02:47:26.837Z,1016.09
2017-05-06T02:48:27.478Z,1016.13
2017-05-06T02:49:28.118Z,1016.08
2017-05-06T02:50:28.760Z,1016.06
2017-05-06T02:51:29.398Z,1016.06
2017-05-06T02:52:30.186Z,1016.11
2017-05-06T02:53:30.835Z,1016.12
2017-05-06T02:54:31.474Z,1016.17
2017-05-06T02:55:32.118Z,1016.22
2017-05-06T02:56:32.753Z,1016.21
2017-05-06T02:57:33.394Z,1016.21
2017-05-06T02:58:34.038Z,1016.26
2017-05-06T02:59:34.680Z,1016.34
2017-05-06T03:00:35.520Z,1016.26
2017-05-06T03:01:36.160Z,1016.30
2017-05-06T03:02:36.802Z,1016.30
2017-05-06T03:03:37.438Z,1016.30
2017-05-06T03:04:38.080Z,1016.26
2017-05-06T03:05:38.719Z,1016.30
2017-05-06T03:06:39.362Z,1016.27
2017-05-06T03:07:40.001Z,1016.37
2017-05-06T03:08:40.840Z,1016.35
2017-05-06T03:09:41.480Z,1016.35
2017-05-06T03:10:42.120Z,1016.28
2017-05-06T03:11:42.764Z,1016.35
2017-05-06T03:12:43.401Z,1016.37
2017-05-06T03:13:44.042Z,1016.34
2017-05-06T03:14:44.686Z,1016.32
2017-05-06T03:15:45.327Z,1016.28
2017-05-06T03:16:45.967Z,1016.38
2017-05-06T03:17:46.809Z,1016.38
2017-05-06T03:18:47.448Z,1016.39
2017-05-06T03:19:48.088Z,1016.48
2017-05-06T03:20:48.730Z,1016.41
2017-05-06T03:21:49.370Z,1016.36
2017-05-06T03:22:50.004Z,1016.41
2017-05-06T03:23:50.656Z,1016.41
2017-05-06T03:24:51.294Z,1016.48
2017-05-06T03:25:52.087Z,1016.49
2017-05-06T03:26:52.726Z,1016.46
2017-05-06T03:27:53.366Z,1016.46
2017-05-06T03:28:54.004Z,1016.51
2017-05-06T03:29:54.647Z,1016.48
2017-05-06T03:30:55.288Z,1016.45
2017-05-06T03:31:55.930Z,1016.47
2017-05-06T03:32:56.568Z,1016.49
2017-05-06T03:33:57.411Z,1016.49
2017-05-06T03:34:58.052Z,1016.43
2017-05-06T03:35:58.690Z,1016.40
2017-05-06T03:36:59.331Z,1016.45
2017-05-06T03:37:59.970Z,1016.49
2017-05-06T03:39:00.611Z,1016.52
2017-05-06T03:40:01.252Z,1016.55
2017-05-06T03:41:01.895Z,1016.49
2017-05-06T03:42:02.735Z,1016.52
2017-05-06T03:43:03.377Z,1016.50
2017-05-06T03:44:04.017Z,1016.62
2017-05-06T03:45:04.655Z,1016.53
2017-05-06T03:46:05.353Z,1016.53
2017-05-06T03:47:05.992Z,1016.54
2017-05-06T03:48:06.632Z,1016.58
2017-05-06T03:49:07.276Z,1016.58
2017-05-06T03:50:07.912Z,1016.58
2017-05-06T03:51:08.753Z,1016.57
2017-05-06T03:52:09.390Z,1016.61
2017-05-06T03:53:10.033Z,1016.57
2017-05-06T03:54:10.674Z,1016.56
2017-05-06T03:55:11.319Z,1016.61
2017-05-06T03:56:11.949Z,1016.67
2017-05-06T03:57:12.592Z,1016.63
2017-05-06T03:58:13.231Z,1016.61
2017-05-06T03:59:14.022Z,1016.68
2017-05-06T04:00:14.664Z,1016.61
2017-05-06T04:01:15.303Z,1016.63
2017-05-06T04:02:15.941Z,1016.60
2017-05-06T04:03:16.582Z,1016.60
2017-05-06T04:04:17.224Z,1016.58
2017-05-06T04:05:17.865Z,1016.64
2017-05-06T04:06:18.506Z,1016.57
2017-05-06T04:07:19.349Z,1016.72
2017-05-06T04:08:19.988Z,1016.66
2017-05-06T04:09:20.633Z,1016.60
2017-05-06T04:10:21.271Z,1016.59
2017-05-06T04:11:21.912Z,1016.59
2017-05-06T04:12:22.552Z,1016.66
2017-05-06T04:13:23.191Z,1016.61
2017-05-06T04:14:23.833Z,1016.58
2017-05-06T04:15:24.677Z,1016.62
2017-05-06T04:16:25.312Z,1016.63
2017-05-06T04:17:25.952Z,1016.58
2017-05-06T04:18:26.592Z,1016.63
2017-05-06T04:19:27.235Z,1016.68
2017-05-06T04:20:27.875Z,1016.59
2017-05-06T04:21:28.515Z,1016.70
2017-05-06T04:22:29.157Z,1016.66
2017-05-06T04:23:29.996Z,1016.72
2017-05-06T04:24:30.638Z,1016.59
2017-05-06T04:25:31.280Z,1016.56
2017-05-06T04:26:31.922Z,1016.60
2017-05-06T04:27:32.561Z,1016.65
2017-05-06T04:28:33.201Z,1016.68
2017-05-06T04:29:33.840Z,1016.70
2017-05-06T04:30:34.480Z,1016.70
2017-05-06T04:31:35.120Z,1016.64
2017-05-06T04:32:35.963Z,1016.66
2017-05-06T04:33:36.604Z,1016.66
2017-05-06T04:34:37.245Z,1016.72
2017-05-06T04:35:37.887Z,1016.62
2017-05-06T04:36:38.527Z,1016.63
2017-05-06T04:37:39.174Z,1016.56
2017-05-06T04:38:39.811Z,1016.60
2017-05-06T04:39:40.451Z,1016.67
2017-05-06T04:40:41.293Z,1016.62
2017-05-06T04:41:41.934Z,1016.65
2017-05-06T04:42:42.575Z,1016.64
2017-05-06T04:43:43.218Z,1016.64
2017-05-06T04:44:43.857Z,1016.66
2017-05-06T04:45:44.497Z,1016.64
2017-05-06T04:46:45.139Z,1016.60
2017-05-06T04:47:45.777Z,1016.62
2017-05-06T04:48:46.570Z,1016.69
2017-05-06T04:49:47.210Z,1016.67
2017-05-06T04:50:47.853Z,1016.70
2017-05-06T04:51:48.494Z,1016.70
2017-05-06T04:52:49.134Z,1016.70
2017-05-06T04:53:49.778Z,1016.64
2017-05-06T04:54:50.413Z,1016.66
2017-05-06T04:55:51.055Z,1016.63
2017-05-06T04:56:51.991Z,1016.64
2017-05-06T04:57:52.630Z,1016.69
2017-05-06T04:58:53.270Z,1016.67
2017-05-06T04:59:53.907Z,1016.69
2017-05-06T05:00:54.549Z,1016.64
2017-05-06T05:01:55.188Z,1016.66
2017-05-06T05:02:55.829Z,1016.65
2017-05-06T05:03:56.470Z,1016.64
2017-05-06T05:04:57.113Z,1016.70
2017-05-06T05:05:57.954Z,1016.68
2017-05-06T05:06:58.592Z,1016.64
2017-05-06T05:07:59.233Z,1016.70
2017-05-06T05:08:59.872Z,1016.73
2017-05-06T05:10:00.512Z,1016.67
2017-05-06T05:11:01.152Z,1016.70
2017-05-06T05:12:01.792Z,1016.68
2017-05-06T05:13:02.431Z,1016.67
2017-05-06T05:14:03.272Z,1016.62
2017-05-06T05:15:03.915Z,1016.67
2017-05-06T05:16:04.556Z,1016.61
2017-05-06T05:17:05.196Z,1016.64
2017-05-06T05:18:05.835Z,1016.75
2017-05-06T05:19:06.477Z,1016.66
2017-05-06T05:20:07.117Z,1016.74
2017-05-06T05:21:07.756Z,1016.84
2017-05-06T05:22:08.598Z,1016.77
2017-05-06T05:23:09.234Z,1016.76
2017-05-06T05:24:09.882Z,1016.72
2017-05-06T05:25:10.575Z,1016.72
2017-05-06T05:26:11.215Z,1016.85
2017-05-06T05:27:11.859Z,1016.77
2017-05-06T05:28:12.499Z,1016.81
2017-05-06T05:29:13.136Z,1016.87
2017-05-06T05:30:13.977Z,1016.89
2017-05-06T05:31:14.620Z,1016.86
2017-05-06T05:32:15.258Z,1016.94
2017-05-06T05:33:15.899Z,1016.91
2017-05-06T05:34:16.546Z,1016.94
2017-05-06T05:35:17.182Z,1016.89
2017-05-06T05:36:17.822Z,1016.94
2017-05-06T05:37:18.461Z,1016.96
2017-05-06T05:38:19.502Z,1017.00
2017-05-06T05:39:20.141Z,1017.04
2017-05-06T05:40:20.781Z,1017.05
2017-05-06T05:41:21.421Z,1016.97
2017-05-06T05:42:22.061Z,1017.07
2017-05-06T05:43:22.703Z,1017.04
2017-05-06T05:44:23.343Z,1017.03
2017-05-06T05:45:24.034Z,1017.02
2017-05-06T05:46:24.675Z,1017.01
2017-05-06T05:47:25.564Z,1017.08
2017-05-06T05:48:26.205Z,1017.09
2017-05-06T05:49:26.846Z,1017.11
2017-05-06T05:50:27.487Z,1017.07
2017-05-06T05:51:28.127Z,1017.07
2017-05-06T05:52:28.765Z,1017.11
2017-05-06T05:53:29.404Z,1017.09
2017-05-06T05:54:30.045Z,1017.11
2017-05-06T05:55:31.134Z,1017.08
2017-05-06T05:56:31.774Z,1017.14
2017-05-06T05:57:32.414Z,1017.17
2017-05-06T05:58:33.056Z,1017.16
2017-05-06T05:59:33.694Z,1017.13
2017-05-06T06:00:34.338Z,1017.11
2017-05-06T06:01:34.978Z,1017.13
2017-05-06T06:02:35.620Z,1017.15
2017-05-06T06:03:36.461Z,1017.22
2017-05-06T06:04:37.100Z,1017.14
2017-05-06T06:05:37.691Z,1017.14
2017-05-06T06:06:38.333Z,1017.27
2017-05-06T06:07:38.969Z,1017.18
2017-05-06T06:08:39.610Z,1017.15
2017-05-06T06:09:40.249Z,1017.11
2017-05-06T06:10:40.892Z,1017.17
2017-05-06T06:11:42.033Z,1017.24
2017-05-06T06:12:42.675Z,1017.24
2017-05-06T06:13:43.316Z,1017.25
2017-05-06T06:14:43.951Z,1017.26
2017-05-06T06:15:44.591Z,1017.29
2017-05-06T06:16:45.235Z,1017.33
2017-05-06T06:17:45.875Z,1017.24
2017-05-06T06:18:46.521Z,1017.30
2017-05-06T06:19:47.155Z,1017.30
2017-05-06T06:20:47.996Z,1017.29
2017-05-06T06:21:48.637Z,1017.24
2017-05-06T06:22:49.280Z,1017.34
2017-05-06T06:23:49.920Z,1017.26
2017-05-06T06:24:50.558Z,1017.32
2017-05-06T06:25:51.203Z,1017.30
2017-05-06T06:26:51.840Z,1017.29
2017-05-06T06:27:52.480Z,1017.34
2017-05-06T06:28:53.672Z,1017.33
2017-05-06T06:29:54.312Z,1017.33
2017-05-06T06:30:54.947Z,1017.34
2017-05-06T06:31:55.588Z,1017.30
2017-05-06T06:32:56.227Z,1017.33
2017-05-06T06:33:56.868Z,1017.34
2017-05-06T06:34:57.511Z,1017.36
2017-05-06T06:35:58.148Z,1017.38
2017-05-06T06:36:59.037Z,1017.41
2017-05-06T06:37:59.678Z,1017.44
2017-05-06T06:39:00.317Z,1017.36
2017-05-06T06:40:00.959Z,1017.43
2017-05-06T06:41:01.596Z,1017.51
2017-05-06T06:42:02.235Z,1017.50
2017-05-06T06:43:02.877Z,1017.51
2017-05-06T06:44:03.519Z,1017.48
2017-05-06T06:45:04.313Z,1017.48
2017-05-06T06:46:04.947Z,1017.55
2017-05-06T06:47:05.590Z,1017.47
2017-05-06T06:48:06.231Z,1017.49
2017-05-06T06:49:06.872Z,1017.48
2017-05-06T06:50:07.515Z,1017.49
2017-05-06T06:51:08.167Z,1017.48
2017-05-06T06:52:08.801Z,1017.49
2017-05-06T06:53:09.635Z,1017.41
2017-05-06T06:54:10.277Z,1017.51
2017-05-06T06:55:10.917Z,1017.45
2017-05-06T06:56:11.558Z,1017.43
2017-05-06T06:57:12.198Z,1017.47
2017-05-06T06:58:12.839Z,1017.48
2017-05-06T06:59:13.474Z,1017.40
2017-05-06T07:00:14.115Z,1017.50
2017-05-06T07:01:14.758Z,1017.50
2017-05-06T07:02:15.800Z,1017.41
2017-05-06T07:03:16.441Z,1017.51
2017-05-06T07:04:17.079Z,1017.58
2017-05-06T07:05:17.723Z,1017.58
2017-05-06T07:06:18.363Z,1017.53
2017-05-06T07:07:19.002Z,1017.53
2017-05-06T07:08:19.642Z,1017.48
2017-05-06T07:09:20.279Z,1017.45
2017-05-06T07:10:21.368Z,1017.49
2017-05-06T07:11:22.010Z,1017.54
2017-05-06T07:12:22.650Z,1017.54
2017-05-06T07:13:23.287Z,1017.49
2017-05-06T07:14:23.927Z,1017.53
2017-05-06T07:15:24.569Z,1017.49
2017-05-06T07:16:25.211Z,1017.56
2017-05-06T07:17:25.849Z,1017.56
2017-05-06T07:18:26.690Z,1017.63
2017-05-06T07:19:27.331Z,1017.57
2017-05-06T07:20:27.969Z,1017.56
2017-05-06T07:21:28.611Z,1017.66
2017-05-06T07:22:29.247Z,1017.59
2017-05-06T07:23:29.887Z,1017.61
2017-05-06T07:24:30.526Z,1017.59
2017-05-06T07:25:31.168Z,1017.60
2017-05-06T07:26:31.959Z,1017.57
2017-05-06T07:27:32.601Z,1017.55
2017-05-06T07:28:33.242Z,1017.70
2017-05-06T07:29:33.885Z,1017.66
2017-05-06T07:30:34.529Z,1017.62
2017-05-06T07:31:35.166Z,1017.64
2017-05-06T07:32:35.808Z,1017.62
2017-05-06T07:33:36.446Z,1017.67
2017-05-06T07:34:37.086Z,1017.53
2017-05-06T07:35:37.922Z,1017.65
2017-05-06T07:36:38.563Z,1017.65
2017-05-06T07:37:39.205Z,1017.65
2017-05-06T07:38:39.848Z,1017.67
2017-05-06T07:39:40.488Z,1017.66
2017-05-06T07:40:41.128Z,1017.65
2017-05-06T07:41:41.768Z,1017.72
2017-05-06T07:42:42.405Z,1017.70
2017-05-06T07:43:43.246Z,1017.79
2017-05-06T07:44:43.883Z,1017.77
2017-05-06T07:45:44.475Z,1017.86
2017-05-06T07:46:45.112Z,1017.80
2017-05-06T07:47:45.746Z,1017.78
2017-05-06T07:48:46.390Z,1017.89
2017-05-06T07:49:47.032Z,1017.81
2017-05-06T07:50:47.678Z,1017.89
2017-05-06T07:51:48.474Z,1017.95
2017-05-06T07:52:49.119Z,1017.98
2017-05-06T07:53:49.763Z,1018.01
2017-05-06T07:54:50.412Z,1017.91
2017-05-06T07:55:51.048Z,1017.92
2017-05-06T07:56:51.690Z,1018.01
2017-05-06T07:57:52.336Z,1017.92
2017-05-06T07:58:52.981Z,1017.94
2017-05-06T07:59:53.832Z,1017.95
2017-05-06T08:00:54.474Z,1017.95
2017-05-06T08:01:55.118Z,1017.99
2017-05-06T08:02:55.762Z,1018.11
2017-05-06T08:03:56.404Z,1018.10
2017-05-06T08:04:57.047Z,1018.15
2017-05-06T08:05:57.691Z,1018.12
2017-05-06T08:06:58.338Z,1018.08
2017-05-06T08:07:59.179Z,1018.14
2017-05-06T08:08:59.820Z,1018.14
2017-05-06T08:10:00.467Z,1018.13
2017-05-06T08:11:01.114Z,1018.13
2017-05-06T08:12:01.757Z,1018.18
2017-05-06T08:13:02.402Z,1018.22
2017-05-06T08:14:03.047Z,1018.22
2017-05-06T08:15:03.691Z,1018.14
2017-05-06T08:16:04.332Z,1018.17
2017-05-06T08:17:05.172Z,1018.27
2017-05-06T08:18:05.816Z,1018.25
2017-05-06T08:19:06.459Z,1018.38
2017-05-06T08:20:07.101Z,1018.35
2017-05-06T08:21:07.743Z,1018.40
2017-05-06T08:22:08.386Z,1018.36
2017-05-06T08:23:09.027Z,1018.39
2017-05-06T08:24:09.672Z,1018.47
2017-05-06T08:25:10.518Z,1018.45
2017-05-06T08:26:11.161Z,1018.41
2017-05-06T08:27:11.805Z,1018.47
2017-05-06T08:28:12.449Z,1018.50
2017-05-06T08:29:13.095Z,1018.44
2017-05-06T08:30:13.735Z,1018.48
2017-05-06T08:31:14.381Z,1018.56
2017-05-06T08:32:15.020Z,1018.53
2017-05-06T08:33:15.867Z,1018.53
2017-05-06T08:34:16.511Z,1018.43
2017-05-06T08:35:17.155Z,1018.49
2017-05-06T08:36:17.802Z,1018.53
2017-05-06T08:37:18.446Z,1018.52
2017-05-06T08:38:19.089Z,1018.52
2017-05-06T08:39:19.735Z,1018.53
2017-05-06T08:40:20.375Z,1018.54
2017-05-06T08:41:21.166Z,1018.54
2017-05-06T08:42:21.812Z,1018.60
2017-05-06T08:43:22.451Z,1018.63
2017-05-06T08:44:23.093Z,1018.59
2017-05-06T08:45:23.736Z,1018.56
2017-05-06T08:46:24.383Z,1018.57
2017-05-06T08:47:25.026Z,1018.55
2017-05-06T08:48:25.668Z,1018.56
2017-05-06T08:49:26.313Z,1018.62
2017-05-06T08:50:27.059Z,1018.55
2017-05-06T08:51:27.703Z,1018.54
2017-05-06T08:52:28.348Z,1018.53
2017-05-06T08:53:28.992Z,1018.53
2017-05-06T08:54:29.636Z,1018.50
2017-05-06T08:55:30.279Z,1018.53
2017-05-06T08:56:30.924Z,1018.55
2017-05-06T08:57:31.567Z,1018.49
2017-05-06T08:58:32.410Z,1018.58
2017-05-06T08:59:33.058Z,1018.61
2017-05-06T09:00:33.704Z,1018.64
2017-05-06T09:01:34.348Z,1018.56
2017-05-06T09:02:34.996Z,1018.60
2017-05-06T09:03:35.640Z,1018.51
2017-05-06T09:04:36.285Z,1018.65
2017-05-06T09:05:36.932Z,1018.53
2017-05-06T09:06:37.779Z,1018.52
2017-05-06T09:07:38.421Z,1018.58
2017-05-06T09:08:39.065Z,1018.51
2017-05-06T09:09:39.705Z,1018.65
2017-05-06T09:10:40.346Z,1018.59
2017-05-06T09:11:40.989Z,1018.62
2017-05-06T09:12:41.632Z,1018.69
2017-05-06T09:13:42.276Z,1018.65
2017-05-06T09:14:43.016Z,1018.61
2017-05-06T09:15:43.660Z,1018.63
2017-05-06T09:16:44.304Z,1018.65
2017-05-06T09:17:44.974Z,1018.64
2017-05-06T09:18:45.594Z,1018.71
2017-05-06T09:19:46.239Z,1018.67
2017-05-06T09:20:46.882Z,1018.76
2017-05-06T09:21:47.527Z,1018.70
2017-05-06T09:22:48.372Z,1018.79
2017-05-06T09:23:49.013Z,1018.82
2017-05-06T09:24:49.658Z,1018.79
2017-05-06T09:25:50.306Z,1018.76
2017-05-06T09:26:50.950Z,1018.83
2017-05-06T09:27:51.596Z,1018.79
2017-05-06T09:28:52.244Z,1018.91
2017-05-06T09:29:52.891Z,1018.95
2017-05-06T09:30:53.539Z,1018.88
2017-05-06T09:31:54.390Z,1018.93
2017-05-06T09:32:55.037Z,1018.92
2017-05-06T09:33:55.687Z,1018.83
2017-05-06T09:34:56.358Z,1018.90
2017-05-06T09:35:56.981Z,1018.93
2017-05-06T09:36:57.622Z,1018.95
2017-05-06T09:37:58.269Z,1018.96
2017-05-06T09:38:58.908Z,1018.95
2017-05-06T09:39:59.753Z,1019.05
2017-05-06T09:41:00.394Z,1019.01
2017-05-06T09:42:01.038Z,1018.95
2017-05-06T09:43:01.692Z,1018.94
2017-05-06T09:44:02.328Z,1019.01
2017-05-06T09:45:02.973Z,1019.04
2017-05-06T09:46:03.618Z,1018.99
2017-05-06T09:47:04.266Z,1019.04
2017-05-06T09:48:05.112Z,1018.99
2017-05-06T09:49:05.757Z,1019.00
2017-05-06T09:50:06.401Z,1018.98
2017-05-06T09:51:07.045Z,1019.10
2017-05-06T09:52:07.683Z,1018.98
2017-05-06T09:53:08.330Z,1019.07
2017-05-06T09:54:08.975Z,1019.08
2017-05-06T09:55:09.619Z,1019.13
2017-05-06T09:56:10.462Z,1019.06
2017-05-06T09:57:11.104Z,1019.11
2017-05-06T09:58:11.749Z,1019.09
2017-05-06T09:59:12.395Z,1019.21
2017-05-06T10:00:13.038Z,1019.09
2017-05-06T10:01:13.684Z,1019.14
2017-05-06T10:02:14.338Z,1019.12
2017-05-06T10:03:14.977Z,1019.15
2017-05-06T10:04:15.619Z,1019.19
2017-05-06T10:05:16.415Z,1019.16
2017-05-06T10:06:17.064Z,1019.21
2017-05-06T10:07:17.732Z,1019.23
2017-05-06T10:08:18.419Z,1019.18
2017-05-06T10:09:19.069Z,1019.19
2017-05-06T10:10:19.719Z,1019.15
2017-05-06T10:11:20.367Z,1019.20
2017-05-06T10:12:21.008Z,1019.17
2017-05-06T10:13:21.955Z,1019.20
2017-05-06T10:14:22.602Z,1019.13
2017-05-06T10:15:23.251Z,1019.14
2017-05-06T10:16:23.900Z,1019.20
2017-05-06T10:17:24.546Z,1019.26
2017-05-06T10:18:25.193Z,1019.20
2017-05-06T10:19:25.840Z,1019.22
2017-05-06T10:20:26.487Z,1019.28
2017-05-06T10:21:27.281Z,1019.24
2017-05-06T10:22:27.934Z,1019.27
2017-05-06T10:23:28.576Z,1019.19
2017-05-06T10:24:29.222Z,1019.20
2017-05-06T10:25:29.864Z,1019.26
2017-05-06T10:26:30.516Z,1019.27
2017-05-06T10:27:31.164Z,1019.43
2017-05-06T10:28:31.816Z,1019.28
2017-05-06T10:29:32.668Z,1019.32
2017-05-06T10:30:33.318Z,1019.35
2017-05-06T10:31:33.969Z,1019.47
2017-05-06T10:32:34.621Z,1019.30
2017-05-06T10:33:35.261Z,1019.29
2017-05-06T10:34:35.912Z,1019.28
2017-05-06T10:35:36.561Z,1019.30
2017-05-06T10:36:37.206Z,1019.25
2017-05-06T10:37:38.052Z,1019.34
2017-05-06T10:38:38.705Z,1019.37
2017-05-06T10:39:39.360Z,1019.39
2017-05-06T10:40:40.015Z,1019.38
2017-05-06T10:41:40.667Z,1019.44
2017-05-06T10:42:41.321Z,1019.40
2017-05-06T10:43:41.976Z,1019.42
2017-05-06T10:44:42.629Z,1019.31
2017-05-06T10:45:43.287Z,1019.38
2017-05-06T10:46:44.142Z,1019.34
2017-05-06T10:47:44.796Z,1019.49
2017-05-06T10:48:45.453Z,1019.35
2017-05-06T10:49:46.111Z,1019.43
2017-05-06T10:50:46.770Z,1019.45
2017-05-06T10:51:47.429Z,1019.44
2017-05-06T10:52:48.088Z,1019.48
2017-05-06T10:53:48.748Z,1019.47
2017-05-06T10:54:49.604Z,1019.41
2017-05-06T10:55:50.264Z,1019.33
2017-05-06T10:56:50.928Z,1019.48
2017-05-06T10:57:51.576Z,1019.44
2017-05-06T10:58:52.279Z,1019.35
2017-05-06T10:59:52.932Z,1019.43
2017-05-06T11:00:53.590Z,1019.43
2017-05-06T11:01:54.252Z,1019.36
2017-05-06T11:02:55.175Z,1019.41
2017-05-06T11:03:55.832Z,1019.51
2017-05-06T11:04:56.493Z,1019.48
2017-05-06T11:05:57.154Z,1019.49
2017-05-06T11:06:57.813Z,1019.42
2017-05-06T11:07:58.475Z,1019.45
2017-05-06T11:08:59.131Z,1019.41
2017-05-06T11:09:59.794Z,1019.38
2017-05-06T11:11:00.605Z,1019.32
2017-05-06T11:12:01.261Z,1019.50
2017-05-06T11:13:01.918Z,1019.31
2017-05-06T11:14:02.581Z,1019.51
2017-05-06T11:15:03.243Z,1019.43
2017-05-06T11:16:03.906Z,1019.40
2017-05-06T11:17:04.561Z,1019.40
2017-05-06T11:18:05.221Z,1019.54
2017-05-06T11:19:05.882Z,1019.51
2017-05-06T11:20:06.739Z,1019.51
2017-05-06T11:21:07.395Z,1019.61
2017-05-06T11:22:08.065Z,1019.54
2017-05-06T11:23:09.030Z,1019.64
2017-05-06T11:24:09.689Z,1019.60
2017-05-06T11:25:10.348Z,1019.52
2017-05-06T11:26:11.006Z,1019.52
2017-05-06T11:27:11.665Z,1019.51
2017-05-06T11:28:12.574Z,1019.57
2017-05-06T11:29:13.235Z,1019.61
2017-05-06T11:30:13.888Z,1019.54
2017-05-06T11:31:14.552Z,1019.54
2017-05-06T11:32:15.211Z,1019.49
2017-05-06T11:33:15.874Z,1019.66
2017-05-06T11:34:16.536Z,1019.53
2017-05-06T11:35:17.191Z,1019.58
2017-05-06T11:36:18.153Z,1019.54
2017-05-06T11:37:18.814Z,1019.63
2017-05-06T11:38:19.477Z,1019.63
2017-05-06T11:39:20.138Z,1019.48
2017-05-06T11:40:20.797Z,1019.55
2017-05-06T11:41:21.459Z,1019.60
2017-05-06T11:42:22.123Z,1019.60
2017-05-06T11:43:22.786Z,1019.58
2017-05-06T11:44:23.702Z,1019.58
2017-05-06T11:45:24.359Z,1019.66
2017-05-06T11:46:25.024Z,1019.70
2017-05-06T11:47:25.690Z,1019.63
2017-05-06T11:48:26.353Z,1019.55
2017-05-06T11:49:27.018Z,1019.65
2017-05-06T11:50:27.683Z,1019.64
2017-05-06T11:51:28.349Z,1019.61
2017-05-06T11:52:29.165Z,1019.67
2017-05-06T11:53:29.831Z,1019.70
2017-05-06T11:54:30.497Z,1019.60
2017-05-06T11:55:31.163Z,1019.73
2017-05-06T11:56:31.829Z,1019.80
2017-05-06T11:57:32.493Z,1019.68
2017-05-06T11:58:33.156Z,1019.73
2017-05-06T11:59:33.822Z,1019.67
2017-05-06T12:00:34.488Z,1019.71
2017-05-06T12:01:35.353Z,1019.65
2017-05-06T12:02:36.020Z,1019.66
2017-05-06T12:03:36.683Z,1019.62
2017-05-06T12:04:37.351Z,1019.71
2017-05-06T12:05:38.016Z,1019.66
2017-05-06T12:06:38.685Z,1019.82
2017-05-06T12:07:39.352Z,1019.72
2017-05-06T12:08:40.016Z,1019.75
2017-05-06T12:09:41.084Z,1019.69
2017-05-06T12:10:41.753Z,1019.84
2017-05-06T12:11:43.183Z,1019.73
2017-05-06T12:12:43.846Z,1019.70
2017-05-06T12:13:44.514Z,1019.77